Weather at Ta’if Regional Airport

Public forecast

Using degrees Celsius for public forecast. Weather courtesy of forecast.io.

Current aviation weather report (METAR) for Ta’if Regional Airport

Retrieved 2021/04/16 14:00 UTC (27 minutes ago):

OETF 161400Z 16016KT 9000 TSRA FEW025CB BKN040 20/11 Q1018 NOSIG

Aviation forecast (TAF) for Ta’if Regional Airport

Retrieved 2021/04/16 12:00 UTC (2 hours ago):

TAF OETF 161100Z 1612/1718 07015KT 7000 FEW030 TEMPO 1612/1618 4000 TSRA FEW025CB SCT030 BECMG 1618/1620 18008KT